Dover, Georgia
Current Conditions -  °F | °C
As of 11:35 PM on Saturday 20 Dec 2014 (Local Time) from KTBR Reporting Station
Haze Haze  
Wind Chill: 50°   Ceiling: 400
Heat Index: 50°   Visibility: 4mi
Dew Point: 50°   Wind: 5mph
Humidity: 100%   Direction: 40°NE
Pressure: 30.21"   Gusts: NA
Location:  32.58°N, 81.71°W
Report Text: KTBR 210435Z AUTO 04004KT 4SM BR OVC004 10/10 A3021 RMK AO2 T01000100
Loading
Personal Weather Stations






























Interactive Weather Map New forecast layout! Learn more

10-Day Weather Forecast

Advertisements
Track Severe Weather on mobile